ADDS TAF Board (Experimental) INFO Settings
IDs: Format: Expanded Condensed

KBWI - Baltimore-Washington, MD, US

Issued at 2334 UTC 01 Jul 2016
Updated at 0011 UTC 02 Jul 2016
Time2354Z 02/01Z 02/02Z 02/03Z 02/04Z 02/05Z 02/06Z 02/07Z 02/08Z 02/09Z 02/10Z 02/11Z 02/12Z 02/13Z
Type OBS PRVL PRVL PRVL PRVL PRVL PRVL PRVL PRVL PRVL PRVL PRVL PRVL PRVL
VIS 10 >6 >6 >6 >6 >6 >6 >6 >6 >6 >6 >6 >6 >6
CIG 90 250 250 -- -- -- -- -- -- -- -- -- -- --
Cover BKN BKN BKN SCT SCT SCT FEW FEW FEW FEW FEW FEW FEW FEW
FltCat VFR VFR VFR VFR VFR VFR VFR VFR VFR VFR VFR VFR VFR VFR
WX -- VCTS VCTS -- -- -- -- -- -- -- -- -- -- --
WDir 150 200 200 250 250 250 310 310 310 310 310 310 310 310
WSpd 8 5 5 4 4 4 7 7 7 7 7 7 7 7
WGst -- -- -- -- -- -- -- -- -- -- -- -- -- --
R04/22
XWnd -7 -1 -1 2 2 2 7 7 7 7 7 7 7 7
HWnd -4 -5 -5 -3 -3 -3 1 1 1 1 1 1 1 1
R10/28
XWnd -7 -5 -5 -2 -2 -2 4 4 4 4 4 4 4 4
HWnd 4 -1 -1 -4 -4 -4 -6 -6 -6 -6 -6 -6 -6 -6
R15/33
XWnd -1 -4 -4 -4 -4 -4 -2 -2 -2 -2 -2 -2 -2 -2
HWnd 8 3 3 -1 -1 -1 -7 -7 -7 -7 -7 -7 -7 -7

Raw TAF
KBWI 012334Z 0200/0306 20005KT P6SM VCTS SCT200CB BKN250
  FM020300 25004KT P6SM SCT250
  FM020600 31007KT P6SM FEW250
  FM030300 VRB03KT P6SM FEW200 SCT250


Raw METAR
KBWI 012354Z COR 15008KT 10SM SCT080TCU BKN090 BKN250 23/21 A2987 RMK AO2 SLP115 CB DSNT SE TCU OHD AND S MOV E 60069 T02330206 10300 20228 53004
KBWI 012254Z 10008KT 10SM SCT048 BKN250 26/21 A2986 RMK AO2 TSE28 PRESRR SLP111 FRQ LTG DSNT SE CB DSNT SE MOV E T02610211
KBWI 012232Z COR 00000KT 10SM BKN048 BKN055 BKN250 27/21 A2984 RMK AO2 TSE28 CB DSNT SE FRQ LTG DSNT SE T02670206
KBWI 012154Z COR 16007KT 10SM TS BKN048CB BKN060 BKN250 24/19 A2985 RMK AO2 TSB32 SLP106 OCNL LTGICCG S TS S MOV E T02440194
KBWI 012135Z 10010KT 10SM TS SCT048CB BKN065 BKN250 26/21 A2985 RMK AO2 TSB32 TS OHD MOV E T02560211

METAR Board
Radar Display
Forecast Discussion

TAF Board Legend

Potential Impact
Threat None Slight Moderate High
Visibility (sm) ≥5.1 5.1>X≥3 3>X≥1 <1
Ceiling (100 ft) ≥30.1 30.1>X≥10 10>X≥5 <5
Wind Speed (kt) <10 10≤X<20 20≤X<30 ≥30
Wind Gust (kt) <15 15≤X<25 25≤X<35 ≥35
Weather No Wx Reported VCTS,-TS,-FZRA,SN TS,FZRA +TS,+FZRA,+SN